createdAt,value
2022-10-09T00:01:39.909Z,3.05
2022-10-09T00:04:44.490Z,3.42
2022-10-09T00:07:48.996Z,2.88
2022-10-09T00:10:53.625Z,3.25
2022-10-09T00:13:58.984Z,3.38
2022-10-09T00:17:03.620Z,3.17
2022-10-09T00:20:08.652Z,3.67
2022-10-09T00:23:18.283Z,3.23
2022-10-09T00:26:22.868Z,3.28
2022-10-09T00:29:27.249Z,3.45
2022-10-09T00:32:31.622Z,3.97
2022-10-09T00:35:39.919Z,2.97
2022-10-09T00:38:44.865Z,3.28
2022-10-09T00:41:49.253Z,4.17
2022-10-09T00:44:58.773Z,6.50
2022-10-09T00:48:11.591Z,9.25
2022-10-09T00:51:16.167Z,10.73
2022-10-09T00:54:26.484Z,13.38
2022-10-09T00:57:34.342Z,6.65
2022-10-09T01:00:38.743Z,8.30
2022-10-09T01:03:43.285Z,6.38
2022-10-09T01:07:00.285Z,5.82
2022-10-09T01:10:11.035Z,4.68
2022-10-09T01:13:28.965Z,3.55
2022-10-09T01:16:39.327Z,3.63
2022-10-09T01:19:49.526Z,3.45
2022-10-09T01:23:27.314Z,3.75
2022-10-09T01:26:56.156Z,17.88
2022-10-09T01:30:07.492Z,20.15
2022-10-09T01:33:12.898Z,9.80
2022-10-09T01:36:19.613Z,6.00
2022-10-09T01:39:25.177Z,3.17
2022-10-09T01:42:30.956Z,2.97
2022-10-09T01:45:44.602Z,24.00
2022-10-09T01:48:56.577Z,4.03
2022-10-09T01:52:13.805Z,3.10
2022-10-09T01:55:27.725Z,3.20
2022-10-09T01:58:38.034Z,3.00
2022-10-09T02:01:43.937Z,3.58
2022-10-09T02:04:50.474Z,4.93
2022-10-09T02:07:56.465Z,3.20
2022-10-09T02:11:03.968Z,2.88
2022-10-09T02:14:08.658Z,3.00
2022-10-09T02:17:24.686Z,3.88
2022-10-09T02:20:34.955Z,4.30
2022-10-09T02:23:41.240Z,3.55
2022-10-09T02:26:45.620Z,3.15
2022-10-09T02:29:51.059Z,3.55
2022-10-09T02:32:55.787Z,2.35
2022-10-09T02:36:00.599Z,3.20
2022-10-09T02:39:06.990Z,3.17
2022-10-09T02:42:11.944Z,3.85
2022-10-09T02:45:16.279Z,6.20
2022-10-09T02:48:21.127Z,4.25
2022-10-09T02:51:26.256Z,4.03
2022-10-09T02:54:30.679Z,3.50
2022-10-09T02:57:35.054Z,3.63
2022-10-09T03:00:40.214Z,3.13
2022-10-09T03:03:45.014Z,3.38
2022-10-09T03:06:49.584Z,2.70
2022-10-09T03:09:53.982Z,2.88
2022-10-09T03:12:58.496Z,2.53
2022-10-09T03:16:07.533Z,2.65
2022-10-09T03:19:11.906Z,2.67
2022-10-09T03:22:16.552Z,2.40
2022-10-09T03:25:21.257Z,2.38
2022-10-09T03:28:26.145Z,2.60
2022-10-09T03:31:51.192Z,2.75
2022-10-09T03:34:55.217Z,2.53
2022-10-09T03:37:59.636Z,2.67
2022-10-09T03:41:06.134Z,2.65
2022-10-09T03:44:10.658Z,2.55
2022-10-09T03:47:15.052Z,2.58
2022-10-09T03:50:19.511Z,2.67
2022-10-09T03:53:24.162Z,2.80
2022-10-09T03:56:28.737Z,3.03
2022-10-09T03:59:33.134Z,3.35
2022-10-09T04:02:38.780Z,7.55
2022-10-09T04:05:43.138Z,2.97
2022-10-09T04:08:47.399Z,2.90
2022-10-09T04:11:51.738Z,3.00
2022-10-09T04:14:56.526Z,2.97
2022-10-09T04:18:01.008Z,3.10
2022-10-09T04:21:05.641Z,2.67
2022-10-09T04:24:09.970Z,4.20
2022-10-09T04:27:14.606Z,3.08
2022-10-09T04:30:19.091Z,3.10
2022-10-09T04:33:23.539Z,5.45
2022-10-09T04:36:27.791Z,7.10
2022-10-09T04:39:32.254Z,4.35
2022-10-09T04:42:36.702Z,3.13
2022-10-09T04:45:41.527Z,2.53
2022-10-09T04:48:47.450Z,2.90
2022-10-09T04:51:51.839Z,2.90
2022-10-09T04:54:56.330Z,3.10
2022-10-09T04:58:00.609Z,2.83
2022-10-09T05:01:14.289Z,2.50
2022-10-09T05:04:18.749Z,2.50
2022-10-09T05:07:23.065Z,3.08
2022-10-09T05:10:27.496Z,2.40
2022-10-09T05:13:33.725Z,20.40
2022-10-09T05:17:00.922Z,6.75
2022-10-09T05:20:02.730Z,9.63
2022-10-09T05:23:07.288Z,5.50
2022-10-09T05:26:18.278Z,5.40
2022-10-09T05:29:22.714Z,3.42
2022-10-09T05:32:27.628Z,6.18
2022-10-09T05:35:31.838Z,6.03
2022-10-09T05:38:36.193Z,3.80
2022-10-09T05:41:40.756Z,21.85
2022-10-09T05:44:45.126Z,8.70
2022-10-09T05:47:49.538Z,6.00
2022-10-09T05:50:53.975Z,10.75
2022-10-09T05:53:59.248Z,4.45
2022-10-09T05:57:05.459Z,3.85
2022-10-09T06:00:10.541Z,4.00
2022-10-09T06:03:16.277Z,7.13
2022-10-09T06:06:23.648Z,4.70
2022-10-09T06:09:28.332Z,10.82
2022-10-09T06:12:32.846Z,7.23
2022-10-09T06:15:37.284Z,23.75
2022-10-09T06:18:48.138Z,6.83
2022-10-09T06:21:53.465Z,2.83
2022-10-09T06:24:57.955Z,2.90
2022-10-09T06:28:02.682Z,6.28
2022-10-09T06:31:11.312Z,8.32
2022-10-09T06:34:15.892Z,11.65
2022-10-09T06:37:20.270Z,25.80
2022-10-09T06:40:24.639Z,3.40
2022-10-09T06:43:29.030Z,3.30
2022-10-09T06:46:36.537Z,3.42
2022-10-09T06:49:41.348Z,2.83
2022-10-09T06:52:46.104Z,4.47
2022-10-09T06:55:58.460Z,3.67
2022-10-09T06:59:05.184Z,2.70
2022-10-09T07:02:10.773Z,3.13
2022-10-09T07:05:16.497Z,3.90
2022-10-09T07:08:20.884Z,4.65
2022-10-09T07:11:31.937Z,5.60
2022-10-09T07:14:36.412Z,7.00
2022-10-09T07:17:40.963Z,5.20
2022-10-09T07:20:45.100Z,5.72
2022-10-09T07:23:49.979Z,5.93
2022-10-09T07:26:57.819Z,7.57
2022-10-09T07:30:02.206Z,14.60
2022-10-09T07:33:07.448Z,11.02
2022-10-09T07:36:12.773Z,15.27
2022-10-09T07:39:20.157Z,14.05
2022-10-09T07:42:24.424Z,30.80
2022-10-09T07:45:29.121Z,4.18
2022-10-09T07:48:33.376Z,4.40
2022-10-09T07:51:38.280Z,5.07
2022-10-09T07:54:42.751Z,3.97
2022-10-09T07:57:47.326Z,4.53
2022-10-09T08:00:51.706Z,3.22
2022-10-09T08:03:57.061Z,3.35
2022-10-09T08:07:01.588Z,3.55
2022-10-09T08:13:11.394Z,4.32
2022-10-09T08:16:16.683Z,4.72
2022-10-09T08:19:21.094Z,3.92
2022-10-09T08:22:25.824Z,3.80
2022-10-09T08:25:30.604Z,4.37
2022-10-09T08:28:35.048Z,4.35
2022-10-09T08:31:39.600Z,6.32
2022-10-09T08:34:44.101Z,3.77
2022-10-09T08:37:48.481Z,3.97
2022-10-09T08:41:03.359Z,4.15
2022-10-09T08:44:31.223Z,3.37
2022-10-09T08:47:44.606Z,6.15
2022-10-09T08:50:52.680Z,3.38
2022-10-09T08:54:04.106Z,3.88
2022-10-09T08:57:15.194Z,4.20
2022-10-09T09:00:25.817Z,3.47
2022-10-09T09:03:33.115Z,3.28
2022-10-09T09:06:40.433Z,3.55
2022-10-09T09:10:01.637Z,4.22
2022-10-09T09:13:21.096Z,8.15
2022-10-09T09:17:18.759Z,5.18
2022-10-09T09:20:50.179Z,3.50
2022-10-09T09:23:54.785Z,4.38
2022-10-09T09:27:04.822Z,8.32
2022-10-09T09:30:19.671Z,24.08
2022-10-09T09:33:37.317Z,17.42
2022-10-09T09:36:55.491Z,17.65
2022-10-09T09:43:27.219Z,13.17
2022-10-09T09:46:33.537Z,8.25
2022-10-09T09:49:38.026Z,7.47
2022-10-09T09:52:46.768Z,11.02
2022-10-09T09:55:55.383Z,15.55
2022-10-09T09:58:59.775Z,14.05
2022-10-09T10:02:24.845Z,16.83
2022-10-09T10:05:29.316Z,17.92
2022-10-09T10:08:37.336Z,21.30
2022-10-09T10:12:09.965Z,23.27
2022-10-09T10:15:31.814Z,24.02
2022-10-09T10:18:44.390Z,25.50
2022-10-09T10:21:51.500Z,25.40
2022-10-09T10:24:59.272Z,23.58
2022-10-09T10:28:12.797Z,24.38
2022-10-09T10:31:27.692Z,23.75
2022-10-09T10:34:40.169Z,24.88
2022-10-09T10:38:02.792Z,20.52
2022-10-09T10:41:18.727Z,10.40
2022-10-09T10:47:44.359Z,12.13
2022-10-09T10:51:06.626Z,12.02
2022-10-09T10:55:05.011Z,11.85
2022-10-09T10:58:39.021Z,10.18
2022-10-09T11:01:53.272Z,9.63
2022-10-09T11:05:28.063Z,9.18
2022-10-09T11:08:57.255Z,9.63
2022-10-09T11:12:46.716Z,6.50
2022-10-09T11:16:13.015Z,6.55
2022-10-09T11:22:47.309Z,6.70
2022-10-09T11:26:25.296Z,6.07
2022-10-09T11:29:36.053Z,9.88
2022-10-09T11:32:48.531Z,8.73
2022-10-09T11:36:11.490Z,9.77
2022-10-09T11:39:32.061Z,8.45
2022-10-09T11:42:37.597Z,21.95
2022-10-09T11:45:47.069Z,11.63
2022-10-09T11:49:32.785Z,45.80
2022-10-09T11:52:37.065Z,14.95
2022-10-09T11:55:41.639Z,32.92
2022-10-09T11:58:56.955Z,22.30
2022-10-09T12:02:15.248Z,33.37
2022-10-09T12:05:38.122Z,27.88
2022-10-09T12:09:09.524Z,20.27
2022-10-09T12:12:17.279Z,21.73
2022-10-09T12:15:30.021Z,15.10
2022-10-09T12:18:46.402Z,26.80
2022-10-09T12:22:29.256Z,32.38
2022-10-09T12:25:43.793Z,25.65
2022-10-09T12:29:01.079Z,27.75
2022-10-09T12:32:09.143Z,29.85
2022-10-09T12:35:35.706Z,28.02
2022-10-09T12:41:47.297Z,28.27
2022-10-09T12:44:55.417Z,24.42
2022-10-09T12:48:09.722Z,23.70
2022-10-09T12:51:24.083Z,22.08
2022-10-09T12:54:31.340Z,21.17
2022-10-09T12:57:35.955Z,19.88
2022-10-09T13:00:41.732Z,20.42
2022-10-09T13:07:03.123Z,20.25
2022-10-09T13:10:18.169Z,20.13
2022-10-09T13:13:28.759Z,19.90
2022-10-09T13:16:48.545Z,21.52
2022-10-09T13:19:56.062Z,23.45
2022-10-09T13:23:03.116Z,29.20
2022-10-09T13:26:07.946Z,32.40
2022-10-09T13:29:13.477Z,34.63
2022-10-09T13:32:19.190Z,31.85
2022-10-09T13:35:23.576Z,30.17
2022-10-09T13:38:31.394Z,30.92
2022-10-09T13:41:38.670Z,30.42
2022-10-09T13:44:43.427Z,26.67
2022-10-09T13:47:48.263Z,23.25
2022-10-09T13:50:53.516Z,21.73
2022-10-09T13:53:57.902Z,22.88
2022-10-09T13:57:02.209Z,20.63
2022-10-09T14:00:08.473Z,19.67
2022-10-09T14:03:19.080Z,23.42
2022-10-09T14:06:23.775Z,22.38
2022-10-09T14:09:28.310Z,23.23
2022-10-09T14:12:32.578Z,23.00
2022-10-09T14:15:40.981Z,23.95
2022-10-09T14:18:45.389Z,20.77
2022-10-09T14:21:49.764Z,20.90
2022-10-09T14:24:54.248Z,21.00
2022-10-09T14:27:58.629Z,20.27
2022-10-09T14:31:07.206Z,20.08
2022-10-09T14:34:14.745Z,20.48
2022-10-09T14:37:39.975Z,21.48
2022-10-09T14:40:45.061Z,19.15
2022-10-09T14:43:56.994Z,19.48
2022-10-09T14:47:01.530Z,18.65
2022-10-09T14:50:06.351Z,19.27
2022-10-09T14:53:10.727Z,17.77
2022-10-09T14:56:20.894Z,18.27
2022-10-09T14:59:25.470Z,17.35
2022-10-09T15:02:29.987Z,18.13
2022-10-09T15:05:36.918Z,16.25
2022-10-09T15:08:43.545Z,16.92
2022-10-09T15:11:47.949Z,14.07
2022-10-09T15:14:52.540Z,20.80
2022-10-09T15:17:57.237Z,14.30
2022-10-09T15:21:01.784Z,13.05
2022-10-09T15:24:06.894Z,10.98
2022-10-09T15:27:11.328Z,21.38
2022-10-09T15:30:15.801Z,10.90
2022-10-09T15:33:20.661Z,9.27
2022-10-09T15:36:26.364Z,10.63
2022-10-09T15:39:30.622Z,13.13
2022-10-09T15:42:37.631Z,23.98
2022-10-09T15:45:42.478Z,23.73
2022-10-09T15:48:48.856Z,12.07
2022-10-09T15:51:53.354Z,9.02
2022-10-09T15:54:57.774Z,20.75
2022-10-09T15:58:02.219Z,23.17
2022-10-09T16:01:13.109Z,22.63
2022-10-09T16:04:17.335Z,20.08
2022-10-09T16:07:21.918Z,14.40
2022-10-09T16:10:26.287Z,10.93
2022-10-09T16:13:30.764Z,16.38
2022-10-09T16:16:35.136Z,28.73
2022-10-09T16:19:39.698Z,20.90
2022-10-09T16:22:45.560Z,19.92
2022-10-09T16:29:02.534Z,22.80
2022-10-09T16:32:06.850Z,24.58
2022-10-09T16:35:11.339Z,24.95
2022-10-09T16:38:16.113Z,23.48
2022-10-09T16:41:22.483Z,24.23
2022-10-09T16:44:26.946Z,24.40
2022-10-09T16:47:31.702Z,24.30
2022-10-09T16:50:42.081Z,23.58
2022-10-09T16:53:49.352Z,22.15
2022-10-09T16:56:53.651Z,18.35
2022-10-09T16:59:59.529Z,19.35
2022-10-09T17:03:04.021Z,118.93
2022-10-09T17:06:10.715Z,57.92
2022-10-09T17:09:15.962Z,45.47
2022-10-09T17:12:20.521Z,22.27
2022-10-09T17:15:25.011Z,34.75
2022-10-09T17:18:29.396Z,35.67
2022-10-09T17:21:34.868Z,31.13
2022-10-09T17:24:40.160Z,30.05
2022-10-09T17:27:44.349Z,20.92
2022-10-09T17:30:50.186Z,13.35
2022-10-09T17:33:57.114Z,12.60
2022-10-09T17:37:01.568Z,12.68
2022-10-09T17:40:06.789Z,11.23
2022-10-09T17:43:11.091Z,10.55
2022-10-09T17:46:16.609Z,7.68
2022-10-09T17:49:21.004Z,8.98
2022-10-09T17:52:25.356Z,7.25
2022-10-09T17:55:30.464Z,6.00
2022-10-09T17:58:35.155Z,5.63
2022-10-09T18:01:40.048Z,5.00
2022-10-09T18:04:44.559Z,7.10
2022-10-09T18:07:49.302Z,7.53
2022-10-09T18:11:02.058Z,8.60
2022-10-09T18:14:06.656Z,8.05
2022-10-09T18:17:11.052Z,9.15
2022-10-09T18:20:15.255Z,10.20
2022-10-09T18:23:22.673Z,10.07
2022-10-09T18:26:27.201Z,9.13
2022-10-09T18:29:31.737Z,8.40
2022-10-09T18:32:36.226Z,8.32
2022-10-09T18:35:41.208Z,7.38
2022-10-09T18:38:47.276Z,6.63
2022-10-09T18:41:52.055Z,6.30
2022-10-09T18:44:58.863Z,5.70
2022-10-09T18:48:04.519Z,5.60
2022-10-09T18:51:14.312Z,5.50
2022-10-09T18:54:20.668Z,6.43
2022-10-09T18:57:28.029Z,5.75
2022-10-09T19:00:32.705Z,5.60
2022-10-09T19:03:37.545Z,5.37
2022-10-09T19:06:41.958Z,6.20
2022-10-09T19:09:53.571Z,5.43
2022-10-09T19:13:00.657Z,5.22
2022-10-09T19:16:06.512Z,5.40
2022-10-09T19:19:11.100Z,5.90
2022-10-09T19:22:18.128Z,6.60
2022-10-09T19:25:24.607Z,6.28
2022-10-09T19:28:33.736Z,6.68
2022-10-09T19:31:38.492Z,6.20
2022-10-09T19:34:44.872Z,6.10
2022-10-09T19:37:49.678Z,6.32
2022-10-09T19:40:54.471Z,6.70
2022-10-09T19:44:00.610Z,8.13
2022-10-09T19:47:05.174Z,9.65
2022-10-09T19:50:10.187Z,9.52
2022-10-09T19:53:15.348Z,11.57
2022-10-09T19:56:25.826Z,12.82
2022-10-09T19:59:30.946Z,11.98
2022-10-09T20:02:35.455Z,12.97
2022-10-09T20:05:39.874Z,12.40
2022-10-09T20:08:45.991Z,12.23
2022-10-09T20:11:51.149Z,12.30
2022-10-09T20:14:55.466Z,10.18
2022-10-09T20:17:59.909Z,13.32
2022-10-09T20:21:04.470Z,10.77
2022-10-09T20:24:09.218Z,9.90
2022-10-09T20:27:13.861Z,9.48
2022-10-09T20:30:18.471Z,8.95
2022-10-09T20:33:22.808Z,9.13
2022-10-09T20:36:36.152Z,8.82
2022-10-09T20:39:40.798Z,7.47
2022-10-09T20:42:45.181Z,7.47
2022-10-09T20:45:49.911Z,6.68
2022-10-09T20:48:54.864Z,7.57
2022-10-09T20:51:59.468Z,7.30
2022-10-09T20:55:03.903Z,8.23
2022-10-09T20:58:08.362Z,10.10
2022-10-09T21:01:14.912Z,11.85
2022-10-09T21:04:19.523Z,13.02
2022-10-09T21:07:23.812Z,16.48
2022-10-09T21:10:28.190Z,26.83
2022-10-09T21:13:32.697Z,90.07
2022-10-09T21:16:36.959Z,35.30
2022-10-09T21:19:41.228Z,15.18
2022-10-09T21:22:45.641Z,14.48
2022-10-09T21:25:54.941Z,13.82
2022-10-09T21:29:00.123Z,14.40
2022-10-09T21:32:04.867Z,16.58
2022-10-09T21:35:09.824Z,16.33
2022-10-09T21:38:17.171Z,17.23
2022-10-09T21:41:21.547Z,17.33
2022-10-09T21:44:26.206Z,41.80
2022-10-09T21:47:31.989Z,23.08
2022-10-09T21:50:37.773Z,17.92
2022-10-09T21:53:42.565Z,19.00
2022-10-09T21:56:47.057Z,21.52
2022-10-09T21:59:51.355Z,22.05
2022-10-09T22:02:55.661Z,34.47
2022-10-09T22:06:05.692Z,26.60
2022-10-09T22:09:11.207Z,22.25
2022-10-09T22:15:19.901Z,18.63
2022-10-09T22:18:24.508Z,19.80
2022-10-09T22:21:29.004Z,17.80
2022-10-09T22:24:33.713Z,16.65
2022-10-09T22:27:40.816Z,19.00
2022-10-09T22:30:45.541Z,23.20
2022-10-09T22:34:00.371Z,26.70
2022-10-09T22:37:05.408Z,29.13
2022-10-09T22:40:10.020Z,25.05
2022-10-09T22:43:14.420Z,25.90
2022-10-09T22:46:22.151Z,27.73
2022-10-09T22:49:26.642Z,16.35
2022-10-09T22:52:31.060Z,15.43
2022-10-09T22:55:35.464Z,15.07
2022-10-09T22:58:40.436Z,12.60
2022-10-09T23:01:52.320Z,12.23
2022-10-09T23:04:56.815Z,13.57
2022-10-09T23:08:01.158Z,9.93
2022-10-09T23:11:05.971Z,8.60
2022-10-09T23:14:11.584Z,8.15
2022-10-09T23:20:20.303Z,7.38
2022-10-09T23:23:25.078Z,7.20
2022-10-09T23:26:32.746Z,6.87
2022-10-09T23:29:37.166Z,6.80
2022-10-09T23:32:41.558Z,7.70
2022-10-09T23:35:46.050Z,6.93
2022-10-09T23:38:51.932Z,5.40
2022-10-09T23:41:56.267Z,5.88
2022-10-09T23:45:00.760Z,5.90
2022-10-09T23:48:06.919Z,5.57
2022-10-09T23:51:11.960Z,5.82
2022-10-09T23:54:16.568Z,5.78
2022-10-09T23:57:20.915Z,6.82
